EGPB/LSI METAR and TAF weather

Enter ICAO airport designator
Station Type Date Time Source
EGPB METAR 2022/11/26 09:20 UTC NOAA

EGPB 260920Z 21015KT CAVOK 11/08 Q1010


Station Type Date Time Source
EGPB Decoded METAR 2022/11/26 09:20 UTC NOAA

Sumburgh Cape , United Kingdom (EGPB) 59-53N 001-18W
Nov 26, 2022 - 04:20 AM EST / 2022.11.26 0920 UTC
Wind: from the SSW (210 degrees) at 17 MPH (15 KT):0
Visibility: greater than 7 mile(s):0
Temperature: 51 F (11 C)
Dew Point: 46 F (8 C)
Relative Humidity: 81%
Pressure (altimeter): 29.83 in. Hg (1010 hPa)
ob: EGPB 260920Z 21015KT CAVOK 11/08 Q1010
cycle: 9

Station Type Date Time Source
EGPB TAF UTC NOAA

Error!

Example: see airport list